Time;durP1;ratioP1;P1;durP2;ratioP2;P2;SDS_P1;SDS_P2;PMS_P1;PMS_P2;Temp;Humidity;BMP_temperature;BMP_pressure;BME280_temperature;BME280_humidity;BME280_pressure;Samples;Min_cycle;Max_cycle;Signal;HPM_P1;HPM_P2
2021/07/18 00:01:39;;;;;;;11.45;10.25;;;25.30;96.20;;;;;;5056891;28;20497;-90
2021/07/18 00:04:05;;;;;;;13.80;10.63;;;25.30;96.20;;;;;;5039018;28;20028;-89
2021/07/18 00:06:31;;;;;;;10.75;9.65;;;25.30;96.30;;;;;;5056726;28;20079;-90
2021/07/18 00:08:56;;;;;;;13.35;9.85;;;25.30;96.30;;;;;;5039021;28;20167;-90
2021/07/18 00:11:22;;;;;;;11.43;10.20;;;25.30;96.30;;;;;;5038759;28;20171;-90
2021/07/18 00:13:48;;;;;;;11.80;9.52;;;25.20;96.30;;;;;;5038841;28;20540;-90
2021/07/18 00:16:14;;;;;;;10.93;8.98;;;25.20;96.40;;;;;;5038851;28;20753;-89
2021/07/18 00:18:40;;;;;;;10.07;8.95;;;25.20;96.40;;;;;;5038819;28;20028;-90
2021/07/18 00:21:05;;;;;;;10.80;9.35;;;25.20;96.40;;;;;;5038969;28;20025;-90
2021/07/18 00:23:31;;;;;;;11.57;9.80;;;25.20;96.40;;;;;;5038810;28;20025;-91
2021/07/18 00:25:57;;;;;;;14.45;9.68;;;25.20;96.40;;;;;;5056585;28;20021;-89
2021/07/18 00:28:22;;;;;;;10.98;9.15;;;25.20;96.40;;;;;;5038727;28;20055;-91
2021/07/18 00:30:48;;;;;;;11.20;9.70;;;25.20;96.40;;;;;;5056559;28;20104;-90
2021/07/18 00:33:14;;;;;;;10.57;9.43;;;25.20;96.50;;;;;;5038566;28;20074;-90
2021/07/18 00:35:40;;;;;;;11.25;9.30;;;25.20;96.50;;;;;;5038169;28;20488;-90
2021/07/18 00:38:05;;;;;;;10.60;9.48;;;25.20;96.60;;;;;;5038479;28;20112;-90
2021/07/18 00:40:31;;;;;;;11.20;9.73;;;25.20;96.60;;;;;;5038424;28;20025;-89
2021/07/18 00:42:57;;;;;;;10.75;9.65;;;25.20;96.70;;;;;;5038563;28;20025;-90
2021/07/18 00:45:23;;;;;;;9.77;8.77;;;25.20;96.80;;;;;;5038356;28;20489;-89
2021/07/18 00:47:48;;;;;;;11.85;8.60;;;25.20;96.80;;;;;;5056190;28;20036;-91
2021/07/18 00:50:15;;;;;;;9.85;8.85;;;25.20;96.90;;;;;;5039054;28;20124;-90
2021/07/18 00:52:41;;;;;;;10.43;9.32;;;25.20;97.00;;;;;;5038019;28;20032;-89
2021/07/18 00:55:08;;;;;;;13.27;9.18;;;25.20;97.10;;;;;;5038157;28;20029;-90
2021/07/18 00:57:36;;;;;;;10.27;9.15;;;25.20;97.10;;;;;;5038041;28;20029;-90
2021/07/18 01:00:08;;;;;;;12.38;9.13;;;25.20;97.10;;;;;;5037998;28;20028;-90
2021/07/18 01:02:35;;;;;;;10.80;9.10;;;25.20;97.10;;;;;;5055946;28;20391;-89
2021/07/18 01:05:01;;;;;;;13.02;9.30;;;25.20;97.10;;;;;;5038098;28;20117;-90
2021/07/18 01:07:27;;;;;;;11.07;8.65;;;25.20;97.10;;;;;;5038104;28;20029;-89
2021/07/18 01:09:53;;;;;;;10.02;9.02;;;25.20;97.20;;;;;;5038009;28;20040;-90
2021/07/18 01:12:19;;;;;;;12.43;9.70;;;25.20;97.20;;;;;;5038072;28;20024;-89
2021/07/18 01:14:45;;;;;;;10.98;9.68;;;25.10;97.20;;;;;;5037696;28;20037;-89
2021/07/18 01:17:11;;;;;;;10.40;9.25;;;25.10;97.30;;;;;;5037751;28;20447;-89
2021/07/18 01:19:39;;;;;;;13.95;9.65;;;25.10;97.30;;;;;;5055384;28;20482;-90
2021/07/18 01:22:05;;;;;;;11.80;9.13;;;25.10;97.40;;;;;;5055320;28;20028;-89
2021/07/18 01:24:31;;;;;;;10.38;8.88;;;25.10;97.40;;;;;;5037673;28;20472;-89
2021/07/18 01:26:58;;;;;;;11.80;10.00;;;25.00;97.50;;;;;;5055315;28;20025;-90
2021/07/18 01:29:25;;;;;;;10.10;9.02;;;25.10;97.50;;;;;;5037452;28;20473;-90
2021/07/18 01:31:51;;;;;;;10.35;9.32;;;25.00;97.50;;;;;;5037458;28;20460;-89
2021/07/18 01:34:17;;;;;;;13.45;9.45;;;25.00;97.60;;;;;;5037363;28;20120;-89
2021/07/18 01:36:43;;;;;;;13.55;9.65;;;25.00;97.60;;;;;;5037075;28;20483;-89
2021/07/18 01:39:10;;;;;;;11.77;10.48;;;25.10;97.70;;;;;;5055269;28;20092;-90
2021/07/18 01:41:37;;;;;;;10.73;9.23;;;25.10;97.70;;;;;;5037278;28;20025;-89
2021/07/18 01:44:03;;;;;;;13.07;9.85;;;25.00;97.70;;;;;;5037035;28;20017;-89
2021/07/18 01:46:30;;;;;;;14.82;10.30;;;25.00;97.70;;;;;;5037203;28;20039;-88
2021/07/18 01:48:57;;;;;;;9.98;8.80;;;25.00;97.80;;;;;;5037197;28;20025;-90
2021/07/18 01:51:25;;;;;;;10.75;9.50;;;25.00;97.80;;;;;;5037222;28;20029;-89
2021/07/18 01:53:55;;;;;;;13.50;9.93;;;25.00;97.90;;;;;;5036929;28;20089;-89
2021/07/18 01:56:22;;;;;;;11.07;9.93;;;25.00;97.90;;;;;;5037053;28;20116;-89
2021/07/18 01:58:52;;;;;;;11.98;9.95;;;25.00;98.00;;;;;;5037154;28;20060;-89
2021/07/18 02:01:18;;;;;;;;;;;25.00;98.00;;;;;;5017579;28;20051;-90
2021/07/18 02:03:44;;;;;;;12.93;9.60;;;25.00;98.10;;;;;;5017897;28;19912;-90
2021/07/18 02:06:11;;;;;;;10.82;9.68;;;24.90;98.10;;;;;;5024162;28;20089;-88
2021/07/18 02:08:37;;;;;;;11.98;10.32;;;24.90;98.20;;;;;;5036616;28;20028;-89
2021/07/18 02:11:03;;;;;;;13.93;10.70;;;24.90;98.20;;;;;;5036851;28;20471;-90
2021/07/18 02:13:29;;;;;;;12.20;10.38;;;24.90;98.30;;;;;;5036619;28;20082;-89
2021/07/18 02:16:01;;;;;;;18.83;11.43;;;24.90;98.30;;;;;;5054345;28;20028;-89
2021/07/18 02:18:28;;;;;;;12.30;10.88;;;24.90;98.40;;;;;;5036641;28;20079;-89
2021/07/18 02:20:57;;;;;;;12.02;10.07;;;24.90;98.40;;;;;;5036930;28;20416;-89
2021/07/18 02:23:23;;;;;;;;;;;24.90;98.40;;;;;;5036847;28;20468;-89
2021/07/18 02:25:50;;;;;;;12.98;10.18;;;24.90;98.40;;;;;;5053321;28;19905;-89
2021/07/18 02:28:16;;;;;;;11.40;9.85;;;24.90;98.50;;;;;;5054686;28;20468;-89
2021/07/18 02:30:42;;;;;;;11.98;10.45;;;24.90;98.60;;;;;;5036642;28;20025;-89
2021/07/18 02:33:08;;;;;;;17.55;10.82;;;24.90;98.80;;;;;;5036495;28;20029;-90
2021/07/18 02:35:34;;;;;;;11.23;10.13;;;24.90;98.70;;;;;;5036367;28;20525;-89
2021/07/18 02:38:00;;;;;;;11.43;9.90;;;24.90;98.80;;;;;;5036238;28;20021;-89
2021/07/18 02:40:26;;;;;;;12.10;10.40;;;24.90;98.80;;;;;;5036471;28;20025;-89
2021/07/18 02:42:52;;;;;;;14.32;9.98;;;24.90;98.90;;;;;;5036375;28;20108;-89
2021/07/18 02:45:21;;;;;;;11.75;10.50;;;24.90;98.90;;;;;;5054063;28;20021;-88
2021/07/18 02:47:48;;;;;;;12.63;10.52;;;24.90;98.90;;;;;;5036546;28;20436;-89
2021/07/18 02:50:17;;;;;;;13.32;11.40;;;24.90;98.80;;;;;;5036530;28;20033;-90
2021/07/18 02:52:44;;;;;;;13.20;10.05;;;24.90;98.90;;;;;;5036473;28;20029;-90
2021/07/18 02:55:10;;;;;;;12.90;10.00;;;24.90;98.80;;;;;;5036179;28;20040;-90
2021/07/18 02:57:36;;;;;;;13.15;10.88;;;24.90;98.80;;;;;;5038988;28;20029;-89
2021/07/18 03:00:09;;;;;;;12.45;10.60;;;24.90;98.80;;;;;;5040382;28;20021;-89
2021/07/18 03:02:35;;;;;;;13.20;10.70;;;24.90;98.80;;;;;;5057714;28;20040;-88
2021/07/18 03:05:02;;;;;;;12.57;10.75;;;24.90;98.80;;;;;;5058125;28;20468;-88
2021/07/18 03:07:28;;;;;;;13.02;10.48;;;24.90;98.80;;;;;;5040269;28;20035;-90
2021/07/18 03:09:54;;;;;;;12.07;10.20;;;25.00;98.80;;;;;;5040380;28;20120;-90
2021/07/18 03:12:19;;;;;;;13.00;11.18;;;25.00;98.80;;;;;;5040206;28;20051;-89
2021/07/18 03:14:45;;;;;;;17.00;11.50;;;25.00;98.80;;;;;;5039988;28;20025;-90
2021/07/18 03:17:10;;;;;;;13.63;12.05;;;25.00;98.80;;;;;;5039896;28;20075;-89
2021/07/18 03:19:36;;;;;;;13.85;12.32;;;25.00;98.80;;;;;;5040183;28;20479;-90
2021/07/18 03:22:03;;;;;;;14.13;11.50;;;25.00;98.90;;;;;;5039856;28;20112;-90
2021/07/18 03:24:28;;;;;;;33.75;23.15;;;25.00;98.90;;;;;;5039965;28;20021;-91
2021/07/18 03:26:54;;;;;;;35.33;23.67;;;25.00;98.90;;;;;;5039882;28;20078;-89
2021/07/18 03:29:20;;;;;;;25.25;18.85;;;25.00;98.90;;;;;;5039811;28;20048;-90
2021/07/18 03:31:45;;;;;;;22.00;16.65;;;25.00;99.00;;;;;;5039463;28;20094;-88
2021/07/18 03:34:11;;;;;;;16.60;13.43;;;25.00;99.00;;;;;;5039455;28;20036;-88
2021/07/18 03:36:37;;;;;;;13.77;12.27;;;25.00;99.00;;;;;;5039415;28;20041;-89
2021/07/18 03:39:03;;;;;;;13.85;11.55;;;25.00;99.00;;;;;;5040117;28;20029;-88
2021/07/18 03:41:28;;;;;;;13.23;11.80;;;25.10;99.10;;;;;;5039445;28;20067;-88
2021/07/18 03:43:54;;;;;;;13.98;12.40;;;25.10;99.00;;;;;;5039332;28;20020;-89
2021/07/18 03:46:20;;;;;;;18.42;13.93;;;25.20;99.10;;;;;;5057185;28;20025;-89
2021/07/18 03:48:46;;;;;;;18.05;13.15;;;25.20;99.10;;;;;;5039455;28;20029;-90
2021/07/18 03:51:11;;;;;;;15.05;13.00;;;25.20;99.10;;;;;;5039493;28;20029;-88
2021/07/18 03:53:37;;;;;;;14.35;12.77;;;25.20;99.10;;;;;;5039537;28;20029;-90
2021/07/18 03:56:03;;;;;;;14.77;12.50;;;25.20;99.10;;;;;;5039175;28;20025;-90
2021/07/18 03:58:28;;;;;;;15.18;12.80;;;25.20;99.10;;;;;;5039170;28;20131;-87
2021/07/18 04:00:54;;;;;;;16.10;13.80;;;25.20;99.00;;;;;;5056767;28;20021;-88
2021/07/18 04:03:20;;;;;;;15.50;12.80;;;25.20;99.00;;;;;;5039068;28;20025;-90
2021/07/18 04:05:45;;;;;;;17.55;12.43;;;25.30;99.00;;;;;;5039070;28;20025;-90
2021/07/18 04:08:11;;;;;;;16.42;12.85;;;25.30;99.00;;;;;;5038699;28;20056;-91
2021/07/18 04:10:37;;;;;;;16.00;13.07;;;25.30;99.10;;;;;;5039136;28;20383;-91
2021/07/18 04:13:02;;;;;;;17.55;12.88;;;25.30;99.10;;;;;;5038705;28;20483;-88
2021/07/18 04:15:29;;;;;;;17.27;13.90;;;25.30;99.00;;;;;;5056257;28;20025;-87
2021/07/18 04:17:55;;;;;;;15.05;12.68;;;25.30;99.00;;;;;;5056405;28;20029;-90
2021/07/18 04:20:20;;;;;;;14.30;12.80;;;25.30;99.00;;;;;;5038698;28;20024;-89
2021/07/18 04:22:46;;;;;;;15.77;13.13;;;25.30;99.00;;;;;;5038640;28;20022;-88
2021/07/18 04:25:12;;;;;;;19.27;14.13;;;25.40;98.90;;;;;;5056307;28;20468;-90
2021/07/18 04:27:38;;;;;;;15.02;12.85;;;25.40;99.00;;;;;;5042506;28;20395;-90
2021/07/18 04:30:05;;;;;;;18.60;13.63;;;25.40;99.00;;;;;;5058787;28;20491;-89
2021/07/18 04:32:31;;;;;;;15.77;13.50;;;25.40;99.00;;;;;;5058641;28;20055;-88
2021/07/18 04:34:57;;;;;;;17.77;13.65;;;25.50;99.10;;;;;;5076007;28;20044;-90
2021/07/18 04:37:22;;;;;;;14.98;13.43;;;25.50;99.20;;;;;;5060128;28;20017;-92
2021/07/18 04:39:48;;;;;;;20.08;14.75;;;25.50;99.20;;;;;;5044283;28;20025;-90
2021/07/18 04:42:14;;;;;;;15.90;13.25;;;25.60;99.20;;;;;;5038327;28;20025;-88
2021/07/18 04:44:39;;;;;;;15.40;12.88;;;25.60;99.10;;;;;;5038362;28;20036;-90
2021/07/18 04:47:05;;;;;;;14.25;12.50;;;25.60;99.10;;;;;;5038323;28;20052;-91
2021/07/18 04:49:31;;;;;;;15.82;13.27;;;25.70;99.10;;;;;;5038244;28;20475;-93
2021/07/18 04:51:57;;;;;;;16.23;13.63;;;25.70;99.20;;;;;;5038230;28;20025;-95
2021/07/18 04:54:23;;;;;;;16.00;13.18;;;25.80;99.20;;;;;;5038414;28;20031;-91
2021/07/18 04:56:49;;;;;;;14.43;12.93;;;25.80;99.10;;;;;;5038004;28;20032;-89
2021/07/18 04:59:14;;;;;;;15.68;13.20;;;25.90;99.10;;;;;;5037964;28;20025;-88
2021/07/18 05:01:40;;;;;;;15.48;12.95;;;25.90;99.00;;;;;;5038089;28;20021;-92
2021/07/18 05:04:06;;;;;;;16.67;13.25;;;26.00;99.00;;;;;;5038044;28;20048;-90
2021/07/18 05:06:32;;;;;;;14.77;12.88;;;26.00;99.00;;;;;;5038181;28;20383;-90
2021/07/18 05:08:57;;;;;;;14.48;11.98;;;26.10;99.00;;;;;;5056970;28;20434;-90
2021/07/18 05:11:23;;;;;;;15.00;12.10;;;26.10;98.90;;;;;;5050168;28;20055;-88
2021/07/18 05:13:52;;;;;;;14.75;12.57;;;26.20;98.80;;;;;;5037927;28;20071;-90
2021/07/18 05:16:19;;;;;;;16.70;13.30;;;26.20;98.70;;;;;;5038869;28;20021;-90
2021/07/18 05:18:45;;;;;;;13.20;11.82;;;26.20;98.60;;;;;;5054245;28;20054;-89
2021/07/18 05:21:11;;;;;;;14.25;12.20;;;26.30;98.50;;;;;;5057162;28;20028;-90
2021/07/18 05:23:37;;;;;;;13.35;11.70;;;26.30;98.40;;;;;;5055840;28;20036;-90
2021/07/18 05:26:02;;;;;;;13.00;11.43;;;26.40;98.40;;;;;;5046470;28;20021;-92
2021/07/18 05:28:28;;;;;;;13.35;11.95;;;26.40;98.30;;;;;;5057325;28;20464;-90
2021/07/18 05:30:54;;;;;;;13.48;12.07;;;26.40;98.20;;;;;;5051530;28;20043;-92
2021/07/18 05:33:20;;;;;;;14.20;11.85;;;26.50;98.20;;;;;;5056964;28;20043;-89
2021/07/18 05:35:45;;;;;;;14.02;12.45;;;26.50;98.10;;;;;;5056915;28;20048;-89
2021/07/18 05:38:11;;;;;;;13.45;12.05;;;26.60;98.00;;;;;;5057247;28;20028;-89
2021/07/18 05:40:37;;;;;;;11.88;10.70;;;26.60;97.90;;;;;;5057143;28;20025;-89
2021/07/18 05:43:03;;;;;;;13.57;11.52;;;26.60;97.70;;;;;;5057219;28;20031;-90
2021/07/18 05:45:29;;;;;;;17.45;12.90;;;26.70;97.80;;;;;;5057131;28;20078;-90
2021/07/18 05:47:54;;;;;;;14.85;11.88;;;26.70;97.90;;;;;;5056844;28;20025;-91
2021/07/18 05:50:20;;;;;;;14.45;12.95;;;26.70;98.00;;;;;;5035115;28;20034;-93
2021/07/18 05:52:46;;;;;;;15.23;13.00;;;26.80;98.10;;;;;;5017412;28;20026;-93
2021/07/18 05:55:13;;;;;;;13.85;12.45;;;26.80;98.10;;;;;;5017404;28;20526;-92
2021/07/18 05:57:39;;;;;;;17.02;13.55;;;26.90;98.10;;;;;;5017415;28;20476;-93
2021/07/18 06:00:07;;;;;;;16.48;13.63;;;27.00;98.20;;;;;;5017912;28;20117;-92
2021/07/18 06:02:33;;;;;;;17.88;13.60;;;27.00;98.30;;;;;;5017730;28;20092;-91
2021/07/18 06:04:58;;;;;;;15.55;13.90;;;27.10;98.30;;;;;;5018408;28;20106;-94
2021/07/18 06:07:24;;;;;;;17.83;13.88;;;27.10;98.20;;;;;;5017062;28;20048;-94
2021/07/18 06:09:50;;;;;;;15.95;14.32;;;27.10;98.10;;;;;;5017898;28;20116;-96
2021/07/18 06:12:16;;;;;;;18.80;14.20;;;27.20;98.10;;;;;;5018626;28;20029;-96
2021/07/18 06:14:43;;;;;;;16.48;13.85;;;27.20;98.00;;;;;;5017336;28;20025;-92
2021/07/18 06:17:12;;;;;;;16.23;14.52;;;27.30;98.10;;;;;;5024157;28;20461;-95
2021/07/18 06:19:39;;;;;;;17.58;13.57;;;27.30;98.10;;;;;;5038417;28;20029;-90
2021/07/18 06:22:06;;;;;;;16.10;14.45;;;27.30;97.90;;;;;;5036944;28;20082;-92
2021/07/18 06:24:32;;;;;;;14.52;12.90;;;27.30;97.90;;;;;;5050033;28;20095;-92
2021/07/18 06:26:58;;;;;;;14.60;12.73;;;27.30;97.90;;;;;;5056887;28;20025;-91
2021/07/18 06:29:24;;;;;;;15.15;13.52;;;27.40;97.90;;;;;;5056444;28;20051;-95
2021/07/18 06:31:50;;;;;;;16.15;13.20;;;27.40;98.00;;;;;;5057000;28;20028;-94
2021/07/18 06:34:16;;;;;;;15.82;13.52;;;27.40;97.90;;;;;;5057246;28;20050;-91
2021/07/18 06:36:41;;;;;;;15.80;13.30;;;27.40;97.90;;;;;;5056402;28;20080;-92
2021/07/18 06:39:07;;;;;;;14.90;13.38;;;27.50;97.90;;;;;;5056561;28;20024;-91
2021/07/18 06:41:33;;;;;;;16.45;13.25;;;27.50;97.90;;;;;;5056506;28;20379;-94
2021/07/18 06:43:59;;;;;;;15.35;13.77;;;27.50;97.90;;;;;;5057810;28;20058;-94
2021/07/18 06:46:25;;;;;;;15.75;13.93;;;27.50;98.00;;;;;;5057125;28;20507;-94
2021/07/18 06:48:50;;;;;;;15.95;14.15;;;27.60;98.00;;;;;;5057303;28;20032;-93
2021/07/18 06:51:16;;;;;;;18.88;13.68;;;27.60;97.80;;;;;;5056621;28;20031;-94
2021/07/18 06:53:42;;;;;;;17.77;13.70;;;27.70;97.80;;;;;;5058395;28;20031;-95
2021/07/18 06:56:07;;;;;;;18.85;14.70;;;27.80;97.80;;;;;;5057582;28;20029;-95
2021/07/18 06:58:33;;;;;;;15.55;13.95;;;27.80;97.90;;;;;;5056897;28;20489;-92
2021/07/18 07:00:59;;;;;;;15.55;13.73;;;27.90;98.00;;;;;;5056362;28;20071;-93
2021/07/18 07:03:25;;;;;;;14.80;13.13;;;27.90;97.80;;;;;;5056904;28;20541;-93
2021/07/18 07:05:50;;;;;;;15.18;13.05;;;27.90;97.80;;;;;;5056357;28;20055;-96
2021/07/18 07:08:16;;;;;;;17.40;13.15;;;27.90;97.90;;;;;;5056330;28;20029;-90
2021/07/18 18:31:08;;;;;;;41.03;28.50;;;29.50;90.20;;;;;;5091346;28;20416;-93
2021/07/18 18:33:40;;;;;;;50.60;29.83;;;29.10;88.30;;;;;;5066951;28;20024;-94
2021/07/18 18:36:06;;;;;;;35.50;24.23;;;29.00;89.10;;;;;;5070920;28;20112;-91
2021/07/18 18:38:34;;;;;;;39.80;24.35;;;28.90;90.10;;;;;;5070485;28;20052;-94
2021/07/18 18:41:03;;;;;;;26.90;20.50;;;29.00;90.50;;;;;;5071033;28;20459;-94
2021/07/18 18:43:31;;;;;;;30.23;18.98;;;28.90;90.70;;;;;;5070620;28;20257;-95
2021/07/18 18:45:57;;;;;;;24.83;17.35;;;29.00;90.90;;;;;;5070433;28;20055;-95
2021/07/18 18:48:23;;;;;;;32.38;19.42;;;29.00;91.20;;;;;;5070452;28;20052;-94
2021/07/18 18:50:53;;;;;;;24.35;18.27;;;29.00;91.30;;;;;;5069980;28;20049;-94
2021/07/18 18:53:19;;;;;;;23.95;16.83;;;29.00;91.40;;;;;;5071277;28;20021;-94
2021/07/18 18:55:48;;;;;;;20.23;15.13;;;29.00;91.60;;;;;;5071333;28;20108;-95
2021/07/18 18:58:14;;;;;;;21.27;14.95;;;29.00;91.60;;;;;;5070098;28;20020;-95
2021/07/18 19:00:43;;;;;;;21.13;13.90;;;29.00;91.70;;;;;;5051752;28;20043;-94
2021/07/18 19:07:19;;;;;;;;;;;;;;;;;;;;;
2021/07/18 19:10:36;;;;;;;26.40;17.02;;;29.00;91.90;;;;;;5058445;28;20037;-96
2021/07/18 19:13:10;;;;;;;25.13;19.25;;;29.00;91.90;;;;;;5073302;28;20024;-96
2021/07/18 19:15:46;;;;;;;18.58;14.40;;;28.90;92.10;;;;;;5072135;28;20016;-95
2021/07/18 19:18:26;;;;;;;19.63;14.00;;;28.90;92.20;;;;;;5073242;28;20025;-94
2021/07/18 19:21:20;;;;;;;19.65;14.25;;;28.90;92.40;;;;;;5073499;28;20028;-95
2021/07/18 19:24:09;;;;;;;19.08;13.70;;;28.90;92.50;;;;;;5069849;28;20079;-96
2021/07/18 19:26:45;;;;;;;25.27;14.07;;;28.90;92.50;;;;;;5071978;28;20156;-96
2021/07/18 19:29:23;;;;;;;29.65;23.42;;;28.90;92.60;;;;;;5072952;28;20056;-95
2021/07/18 19:35:12;;;;;;;21.77;18.17;;;28.80;92.60;;;;;;4917497;29;20067;-96
2021/07/18 19:37:48;;;;;;;24.52;18.98;;;28.80;93.00;;;;;;4974228;28;20034;-95
2021/07/18 19:40:20;;;;;;;20.17;17.10;;;28.70;92.90;;;;;;5046194;28;20104;-96
2021/07/18 19:43:25;;;;;;;26.65;17.02;;;28.70;93.10;;;;;;5059700;28;20071;-95
2021/07/18 19:46:19;;;;;;;18.52;14.48;;;28.70;93.10;;;;;;5036491;28;20041;-96
2021/07/18 19:49:02;;;;;;;20.00;14.10;;;28.70;93.10;;;;;;5053329;28;20029;-94
2021/07/18 19:51:42;;;;;;;21.48;17.58;;;28.70;93.20;;;;;;5060157;28;20025;-95
2021/07/18 19:54:13;;;;;;;18.42;14.80;;;28.60;93.20;;;;;;5061319;28;20032;-96
2021/07/18 20:01:15;;;;;;;27.00;22.17;;;28.60;93.30;;;;;;4985907;28;20166;-96
2021/07/18 20:04:33;;;;;;;;;;;;;;;;;;;;;
2021/07/18 20:07:13;;;;;;;18.55;14.10;;;28.50;93.50;;;;;;5041781;28;20365;-95
2021/07/18 20:09:58;;;;;;;18.17;14.32;;;28.50;93.60;;;;;;5059328;28;20021;-95
2021/07/18 20:12:41;;;;;;;18.00;13.90;;;28.50;93.80;;;;;;5058904;28;20029;-96
2021/07/18 20:15:55;;;;;;;26.63;22.83;;;28.50;93.90;;;;;;5055930;28;20075;-96
2021/07/18 20:18:21;;;;;;;51.42;44.38;;;28.40;94.00;;;;;;5019543;28;20033;-96
2021/07/18 20:20:49;;;;;;;28.63;25.50;;;28.40;94.10;;;;;;5055666;28;20498;-94
2021/07/18 20:23:21;;;;;;;37.95;31.88;;;28.40;94.30;;;;;;5059386;28;20025;-95
2021/07/18 20:26:14;;;;;;;21.60;19.27;;;28.30;94.30;;;;;;5056948;28;20031;-96
2021/07/18 20:28:42;;;;;;;17.33;15.55;;;28.30;94.40;;;;;;5060513;28;20115;-96
2021/07/18 20:31:08;;;;;;;16.77;13.77;;;28.30;94.40;;;;;;5040908;28;20063;-96
2021/07/18 20:34:11;;;;;;;29.10;20.48;;;28.30;94.60;;;;;;5040933;28;20021;-96
2021/07/18 20:37:02;;;;;;;51.47;43.75;;;28.20;94.70;;;;;;5024499;28;20025;-96
2021/07/18 20:39:28;;;;;;;29.25;22.05;;;28.20;94.80;;;;;;5038720;28;20060;-96
2021/07/18 20:53:12;;;;;;;17.83;15.98;;;28.20;94.80;;;;;;6071990;21;7360550;-90
2021/07/18 20:55:42;;;;;;;27.08;17.85;;;28.90;95.00;;;;;;6354609;22;20003;-92
2021/07/18 20:58:08;;;;;;;18.90;16.88;;;28.70;95.10;;;;;;6353420;22;20401;-92
2021/07/18 21:00:34;;;;;;;21.95;15.30;;;28.70;95.10;;;;;;6356901;22;20032;-93
2021/07/18 21:03:00;;;;;;;16.23;13.77;;;28.60;95.10;;;;;;6352266;22;20006;-93
2021/07/18 21:05:26;;;;;;;29.45;20.23;;;28.50;95.20;;;;;;6354166;22;20402;-90
2021/07/18 21:07:51;;;;;;;18.27;16.27;;;28.50;95.20;;;;;;6352542;22;20025;-93
2021/07/18 21:10:17;;;;;;;16.63;14.40;;;28.40;95.30;;;;;;6353135;22;20413;-92
2021/07/18 21:12:45;;;;;;;16.52;13.20;;;28.40;95.40;;;;;;6352777;22;20012;-93
2021/07/18 21:15:14;;;;;;;18.02;13.82;;;28.30;95.40;;;;;;6353854;22;20026;-94
2021/07/18 21:17:40;;;;;;;17.20;11.50;;;28.30;95.30;;;;;;6353919;22;20417;-92
2021/07/18 21:20:10;;;;;;;13.60;11.95;;;28.40;95.10;;;;;;6352723;22;20089;-93
2021/07/18 21:22:36;;;;;;;15.27;11.70;;;28.40;94.90;;;;;;6352928;22;19998;-93
2021/07/18 21:25:06;;;;;;;15.25;11.98;;;28.30;94.70;;;;;;6353010;22;19999;-93
2021/07/18 21:27:34;;;;;;;15.77;11.55;;;28.30;94.60;;;;;;6352911;22;20002;-91
2021/07/18 21:30:03;;;;;;;14.70;12.35;;;28.30;94.80;;;;;;6352320;22;20006;-92
2021/07/18 21:32:35;;;;;;;14.48;12.35;;;28.30;94.60;;;;;;6353099;22;20009;-89
2021/07/18 21:35:00;;;;;;;13.30;11.52;;;28.20;94.40;;;;;;6353452;22;20324;-89
2021/07/18 21:37:26;;;;;;;12.80;10.77;;;28.20;94.40;;;;;;6353035;22;20029;-89
2021/07/18 21:39:52;;;;;;;14.25;11.85;;;28.20;94.60;;;;;;6352683;22;20006;-89
2021/07/18 21:42:18;;;;;;;13.38;11.73;;;28.10;94.60;;;;;;6352623;22;20007;-89
2021/07/18 21:44:43;;;;;;;29.85;13.05;;;28.10;94.50;;;;;;6352443;22;20003;-89
2021/07/18 21:47:09;;;;;;;13.40;12.00;;;28.10;94.60;;;;;;6352133;22;20417;-87
2021/07/18 21:49:35;;;;;;;13.65;11.95;;;28.10;94.70;;;;;;6352622;22;19998;-86
2021/07/18 21:52:00;;;;;;;13.60;12.02;;;28.00;94.80;;;;;;6351236;22;20018;-89
2021/07/18 21:54:26;;;;;;;18.23;12.13;;;28.00;94.70;;;;;;6345776;22;20022;-89
2021/07/18 21:56:52;;;;;;;20.70;11.82;;;28.00;94.60;;;;;;6345596;22;20013;-89
2021/07/18 21:59:17;;;;;;;16.20;11.98;;;28.00;94.40;;;;;;6345812;22;20298;-90
2021/07/18 22:01:43;;;;;;;13.25;11.85;;;28.00;94.40;;;;;;6345645;22;20026;-89
2021/07/18 22:04:09;;;;;;;13.48;12.00;;;28.00;94.30;;;;;;6345347;22;20001;-89
2021/07/18 22:06:34;;;;;;;18.50;12.40;;;28.00;94.00;;;;;;6344533;22;20002;-89
2021/07/18 22:09:01;;;;;;;15.80;12.55;;;28.00;93.70;;;;;;6344998;22;20077;-90
2021/07/18 22:11:26;;;;;;;13.10;11.73;;;28.00;93.70;;;;;;6345045;22;20002;-90
2021/07/18 22:13:53;;;;;;;20.55;11.13;;;27.90;93.50;;;;;;6345036;22;20006;-89
2021/07/18 22:16:19;;;;;;;12.57;11.07;;;28.00;93.40;;;;;;6344802;22;20108;-89
2021/07/18 22:18:44;;;;;;;18.42;11.13;;;28.00;93.30;;;;;;6345014;22;20058;-89
2021/07/18 22:21:10;;;;;;;15.75;11.18;;;28.00;93.10;;;;;;6345421;22;20017;-89
2021/07/18 22:23:36;;;;;;;14.23;11.93;;;27.90;93.20;;;;;;6345235;22;20004;-89
2021/07/18 22:26:02;;;;;;;13.02;10.55;;;27.90;93.20;;;;;;6344714;22;20058;-89
2021/07/18 22:28:28;;;;;;;12.60;11.32;;;27.90;93.20;;;;;;6345888;22;20440;-90
2021/07/18 22:30:54;;;;;;;16.90;10.43;;;27.90;93.10;;;;;;6345465;22;20010;-89
2021/07/18 22:33:20;;;;;;;16.70;11.32;;;27.90;93.10;;;;;;6344991;22;20433;-90
2021/07/18 22:35:46;;;;;;;13.52;11.27;;;27.90;93.10;;;;;;6345065;22;20029;-90
2021/07/18 22:38:13;;;;;;;13.55;10.60;;;27.90;93.00;;;;;;6345295;22;20476;-89
2021/07/18 22:40:40;;;;;;;14.23;10.65;;;27.90;93.00;;;;;;6345940;22;20078;-90
2021/07/18 22:43:06;;;;;;;11.75;10.05;;;27.80;93.00;;;;;;6345011;22;20542;-89
2021/07/18 22:45:32;;;;;;;15.40;10.90;;;27.80;93.00;;;;;;6344950;22;20005;-89
2021/07/18 22:47:59;;;;;;;12.85;10.18;;;27.80;93.00;;;;;;6345358;22;19995;-89
2021/07/18 22:50:26;;;;;;;14.30;11.10;;;27.70;93.10;;;;;;6345605;22;20458;-89
2021/07/18 22:52:53;;;;;;;13.00;10.70;;;27.70;93.10;;;;;;6344777;22;20018;-90
2021/07/18 22:55:32;;;;;;;16.48;10.98;;;27.70;93.20;;;;;;6344655;22;19998;-89
2021/07/18 22:57:59;;;;;;;11.50;9.98;;;27.70;93.30;;;;;;6345392;22;20036;-89
2021/07/18 23:00:30;;;;;;;17.17;10.27;;;27.60;93.30;;;;;;6344577;22;20005;-89
2021/07/18 23:02:57;;;;;;;13.20;10.43;;;27.60;93.30;;;;;;6344684;22;19999;-89
2021/07/18 23:05:22;;;;;;;12.50;10.70;;;27.60;93.40;;;;;;6343995;22;20432;-90
2021/07/18 23:07:48;;;;;;;12.35;9.93;;;27.60;93.50;;;;;;6344562;22;20081;-90
2021/07/18 23:10:16;;;;;;;12.07;9.98;;;27.60;93.50;;;;;;6344880;22;20003;-90
2021/07/18 23:12:42;;;;;;;11.23;9.98;;;27.60;93.60;;;;;;6344914;22;19998;-89
2021/07/18 23:15:10;;;;;;;15.57;10.70;;;27.50;93.90;;;;;;6344589;22;20005;-90
2021/07/18 23:17:36;;;;;;;13.35;10.35;;;27.40;94.10;;;;;;6345353;22;20002;-89
2021/07/18 23:20:05;;;;;;;13.35;10.23;;;27.40;94.10;;;;;;6345300;22;20006;-90
2021/07/18 23:22:31;;;;;;;12.25;9.35;;;27.40;94.20;;;;;;6344745;22;20010;-90
2021/07/18 23:24:56;;;;;;;11.23;9.95;;;27.30;94.20;;;;;;6344682;22;19998;-90
2021/07/18 23:27:22;;;;;;;12.73;9.98;;;27.30;94.30;;;;;;6344426;22;19998;-89
2021/07/18 23:29:48;;;;;;;13.30;9.93;;;27.30;94.30;;;;;;6344734;22;20031;-90
2021/07/18 23:32:13;;;;;;;13.07;9.65;;;27.20;94.20;;;;;;6345156;22;20007;-89
2021/07/18 23:34:39;;;;;;;11.82;9.70;;;27.20;94.30;;;;;;6372478;22;19998;-90
2021/07/18 23:37:05;;;;;;;12.65;9.55;;;27.30;94.30;;;;;;6345460;22;20002;-89
2021/07/18 23:39:31;;;;;;;13.25;9.60;;;27.20;94.30;;;;;;6345635;22;20478;-89
2021/07/18 23:41:56;;;;;;;12.35;10.32;;;27.20;94.40;;;;;;6344556;22;20002;-90
2021/07/18 23:44:22;;;;;;;13.77;10.25;;;27.20;94.50;;;;;;6344997;22;19999;-90
2021/07/18 23:46:48;;;;;;;14.30;10.80;;;27.20;94.70;;;;;;6344731;22;20397;-90
2021/07/18 23:49:13;;;;;;;11.65;10.13;;;27.20;94.70;;;;;;6344488;22;20051;-90
2021/07/18 23:51:39;;;;;;;16.92;11.05;;;27.10;94.80;;;;;;6344539;22;20550;-90
2021/07/18 23:54:05;;;;;;;12.45;10.65;;;27.10;94.90;;;;;;6344321;22;20084;-90
2021/07/18 23:56:31;;;;;;;14.60;9.75;;;27.00;95.10;;;;;;6372096;22;19998;-90
2021/07/18 23:58:58;;;;;;;13.60;10.50;;;27.00;95.10;;;;;;6344365;22;20002;-90
